Aérodrome :
LOGIN :

S'inscrire | Disclaimer

   EN    FR    IT 

 










Légende :    VFR   VFR Marginal   IFR   IFR Intensif   IFR Très Intensif
Visi : 
Plafond : 
>= 8 km
>= 3000ft
5 à 8 km
1000 à 3000 ft
1500m à 5 km
500 à 1000 ft
800 à 1500m
200 à 500 ft
< 800m
< 200 ft
Symboles :   Orages  Brouillard  Fortes neiges  Fortes précipitations  Vent > 20 kt
SIGMETs :   Divers  Orages  Givrage  Turbulence  Onde Orograph.  Cendres Volcan.






- Altitude de l'aérodrome : 42 ft
- Code IATA : CAL


EGEC - Campbeltown

DERNIER METAR :
  • 271720Z 27015KT 9999 SCT024 06/03 Q1005

METARs EXPIRÉS :
  • 271650Z 27018KT 9999 FEW031 SCT048 07/02 Q1005
  • 271620Z 27014KT 9999 VCSH FEW024 SCT031 06/03 Q1005
  • 271550Z 29014KT 9999 SCT039 06/03 Q1004
  • 271520Z 29013KT 9999 FEW020 06/02 Q1004
  • 271450Z 31013KT 270V350 9999 VCSH FEW018 BKN024 04/02 Q1004 RESHRA

TAF TAF EGEC
Valide du 27 à 15h jusqu'au 27 à 18h UTC


271357Z 2715/2718 30009KT 9999 SCT020
TEMPO 2715/2718 30020G30KT 5000 -SHRASN BKN012



MET'MAP, la Météo Aéronautique d'un coup d'oeil ! - Copyright ORBIFLY Décembre 2007 - Disclaimer

ORBIFLY MET'MAP TEAM :

Programmation & Développement : Alexandra Zaïnal
Sur une idée originale de : Baudouin d'Aumeries
Assistance à la programmation : Marc-Olivier Méhu
Soutien technique & logistique : Manuel Goepfert

Contact : metmap@orbifly.com




SOURCES & CREDITS :

   NOAA